createdAt,value
2017-06-24T00:00:42.013Z,1007.59
2017-06-24T00:01:43.270Z,1007.57
2017-06-24T00:02:44.521Z,1007.59
2017-06-24T00:03:45.833Z,1007.54
2017-06-24T00:04:47.128Z,1007.56
2017-06-24T00:05:48.459Z,1007.59
2017-06-24T00:06:49.801Z,1007.54
2017-06-24T00:07:51.055Z,1007.55
2017-06-24T00:08:52.308Z,1007.57
2017-06-24T00:09:53.579Z,1007.54
2017-06-24T00:10:54.813Z,1007.57
2017-06-24T00:11:56.115Z,1007.6
2017-06-24T00:12:57.588Z,1007.57
2017-06-24T00:13:58.841Z,1007.58
2017-06-24T00:15:00.166Z,1007.66
2017-06-24T00:16:01.449Z,1007.61
2017-06-24T00:17:02.713Z,1007.56
2017-06-24T00:18:04.035Z,1007.57
2017-06-24T00:19:05.318Z,1007.6
2017-06-24T00:20:06.667Z,1007.59
2017-06-24T00:21:07.982Z,1007.46
2017-06-24T00:22:09.265Z,1007.53
2017-06-24T00:23:10.529Z,1007.55
2017-06-24T00:24:11.829Z,1007.53
2017-06-24T00:25:13.115Z,1007.5
2017-06-24T00:26:14.455Z,1007.48
2017-06-24T00:27:15.721Z,1007.5
2017-06-24T00:28:17.007Z,1007.44
2017-06-24T00:29:18.242Z,1007.45
2017-06-24T00:30:19.523Z,1007.42
2017-06-24T00:31:20.772Z,1007.44
2017-06-24T00:32:22.141Z,1007.38
2017-06-24T00:33:23.484Z,1007.46
2017-06-24T00:34:24.719Z,1007.44
2017-06-24T00:35:25.969Z,1007.46
2017-06-24T00:36:27.271Z,1007.41
2017-06-24T00:37:28.660Z,1007.4
2017-06-24T00:38:29.927Z,1007.41
2017-06-24T00:39:31.286Z,1007.37
2017-06-24T00:40:32.555Z,1007.39
2017-06-24T00:41:33.846Z,1007.37
2017-06-24T00:42:35.169Z,1007.4
2017-06-24T00:43:36.422Z,1007.4
2017-06-24T00:44:37.753Z,1007.39
2017-06-24T00:45:39.008Z,1007.33
2017-06-24T00:46:40.277Z,1007.39
2017-06-24T00:47:41.591Z,1007.4
2017-06-24T00:48:42.851Z,1007.4
2017-06-24T00:49:44.277Z,1007.47
2017-06-24T00:50:45.561Z,1007.38
2017-06-24T00:51:46.847Z,1007.42
2017-06-24T00:52:48.143Z,1007.44
2017-06-24T00:53:49.423Z,1007.43
2017-06-24T00:54:50.693Z,1007.48
2017-06-24T00:55:52.079Z,1007.48
2017-06-24T00:56:53.377Z,1007.53
2017-06-24T00:57:54.635Z,1007.52
2017-06-24T00:58:55.893Z,1007.56
2017-06-24T00:59:57.134Z,1007.49
2017-06-24T01:00:58.423Z,1007.52
2017-06-24T01:01:59.674Z,1007.47
2017-06-24T01:03:00.982Z,1007.48
2017-06-24T01:04:02.266Z,1007.49
2017-06-24T01:05:03.516Z,1007.47
2017-06-24T01:06:04.820Z,1007.43
2017-06-24T01:07:06.155Z,1007.44
2017-06-24T01:08:07.424Z,1007.38
2017-06-24T01:09:08.681Z,1007.43
2017-06-24T01:10:09.945Z,1007.44
2017-06-24T01:11:11.222Z,1007.46
2017-06-24T01:12:12.441Z,1007.45
2017-06-24T01:13:13.788Z,1007.51
2017-06-24T01:14:15.001Z,1007.51
2017-06-24T01:15:16.328Z,1007.55
2017-06-24T01:16:17.734Z,1007.53
2017-06-24T01:17:19.007Z,1007.51
2017-06-24T01:18:20.268Z,1007.53
2017-06-24T01:19:21.578Z,1007.6
2017-06-24T01:20:22.862Z,1007.54
2017-06-24T01:21:24.112Z,1007.47
2017-06-24T01:22:25.390Z,1007.55
2017-06-24T01:23:26.728Z,1007.49
2017-06-24T01:24:27.959Z,1007.5
2017-06-24T01:25:29.242Z,1007.47
2017-06-24T01:26:30.539Z,1007.51
2017-06-24T01:27:31.858Z,1007.5
2017-06-24T01:28:33.104Z,1007.49
2017-06-24T01:29:34.366Z,1007.48
2017-06-24T01:30:35.670Z,1007.48
2017-06-24T01:31:36.919Z,1007.47
2017-06-24T01:32:38.229Z,1007.5
2017-06-24T01:33:39.503Z,1007.44
2017-06-24T01:34:40.771Z,1007.45
2017-06-24T01:35:42.126Z,1007.44
2017-06-24T01:36:43.485Z,1007.45
2017-06-24T01:37:44.800Z,1007.41
2017-06-24T01:38:46.016Z,1007.5
2017-06-24T01:39:47.276Z,1007.51
2017-06-24T01:40:48.555Z,1007.5
2017-06-24T01:41:49.954Z,1007.48
2017-06-24T01:42:51.286Z,1007.49
2017-06-24T01:43:52.457Z,1007.45
2017-06-24T01:44:53.851Z,1007.45
2017-06-24T01:45:55.115Z,1007.41
2017-06-24T01:46:56.394Z,1007.39
2017-06-24T01:47:57.773Z,1007.41
2017-06-24T01:48:59.018Z,1007.45
2017-06-24T01:50:00.301Z,1007.42
2017-06-24T01:51:01.560Z,1007.37
2017-06-24T01:52:02.909Z,1007.39
2017-06-24T01:53:04.209Z,1007.31
2017-06-24T01:54:05.492Z,1007.37
2017-06-24T01:55:06.756Z,1007.42
2017-06-24T01:56:08.052Z,1007.39
2017-06-24T01:57:09.305Z,1007.46
2017-06-24T01:58:10.589Z,1007.4
2017-06-24T01:59:11.928Z,1007.44
2017-06-24T02:00:13.194Z,1007.38
2017-06-24T02:01:14.596Z,1007.39
2017-06-24T02:02:15.839Z,1007.41
2017-06-24T02:03:17.120Z,1007.41
2017-06-24T02:04:18.457Z,1007.44
2017-06-24T02:05:19.751Z,1007.47
2017-06-24T02:06:21.067Z,1007.54
2017-06-24T02:07:22.350Z,1007.49
2017-06-24T02:08:23.606Z,1007.52
2017-06-24T02:09:24.852Z,1007.55
2017-06-24T02:10:26.083Z,1007.56
2017-06-24T02:11:27.424Z,1007.55
2017-06-24T02:12:28.681Z,1007.53
2017-06-24T02:13:29.920Z,1007.55
2017-06-24T02:14:31.252Z,1007.55
2017-06-24T02:15:32.484Z,1007.49
2017-06-24T02:16:33.853Z,1007.46
2017-06-24T02:17:35.252Z,1007.46
2017-06-24T02:18:36.411Z,1007.51
2017-06-24T02:19:37.692Z,1007.48
2017-06-24T02:20:38.985Z,1007.46
2017-06-24T02:21:40.314Z,1007.43
2017-06-24T02:22:41.598Z,1007.45
2017-06-24T02:23:42.835Z,1007.44
2017-06-24T02:24:44.106Z,1007.38
2017-06-24T02:25:45.349Z,1007.35
2017-06-24T02:26:46.626Z,1007.35
2017-06-24T02:27:47.947Z,1007.36
2017-06-24T02:28:49.205Z,1007.36
2017-06-24T02:29:50.481Z,1007.34
2017-06-24T02:30:51.734Z,1007.39
2017-06-24T02:31:52.992Z,1007.35
2017-06-24T02:32:54.233Z,1007.28
2017-06-24T02:33:55.507Z,1007.37
2017-06-24T02:34:56.846Z,1007.34
2017-06-24T02:35:58.224Z,1007.33
2017-06-24T02:36:59.468Z,1007.35
2017-06-24T02:38:00.715Z,1007.36
2017-06-24T02:39:01.954Z,1007.35
2017-06-24T02:40:03.225Z,1007.3
2017-06-24T02:41:04.574Z,1007.26
2017-06-24T02:42:05.889Z,1007.31
2017-06-24T02:43:07.166Z,1007.25
2017-06-24T02:44:08.463Z,1007.23
2017-06-24T02:45:09.686Z,1007.25
2017-06-24T02:46:10.947Z,1007.2
2017-06-24T02:47:12.233Z,1007.21
2017-06-24T02:48:13.497Z,1007.24
2017-06-24T02:49:14.802Z,1007.23
2017-06-24T02:50:16.069Z,1007.2
2017-06-24T02:51:17.308Z,1007.16
2017-06-24T02:52:18.647Z,1007.14
2017-06-24T02:53:20.034Z,1007.19
2017-06-24T02:54:21.325Z,1007.23
2017-06-24T02:55:22.622Z,1007.23
2017-06-24T02:56:23.883Z,1007.21
2017-06-24T02:57:25.174Z,1007.2
2017-06-24T02:58:26.438Z,1007.21
2017-06-24T02:59:27.775Z,1007.11
2017-06-24T03:00:29.051Z,1007.15
2017-06-24T03:01:30.302Z,1007.12
2017-06-24T03:02:31.547Z,1007.1
2017-06-24T03:03:33.114Z,1007.06
2017-06-24T03:04:34.368Z,1007.02
2017-06-24T03:05:35.635Z,1007.03
2017-06-24T03:06:36.890Z,1007
2017-06-24T03:07:38.143Z,1006.99
2017-06-24T03:08:39.372Z,1007.01
2017-06-24T03:09:40.620Z,1006.99
2017-06-24T03:10:42.052Z,1006.99
2017-06-24T03:11:43.321Z,1007.06
2017-06-24T03:12:44.581Z,1007.12
2017-06-24T03:13:45.825Z,1007.1
2017-06-24T03:14:47.086Z,1007.08
2017-06-24T03:15:48.403Z,1007.04
2017-06-24T03:16:49.688Z,1006.92
2017-06-24T03:17:50.943Z,1007.06
2017-06-24T03:18:52.204Z,1006.99
2017-06-24T03:19:53.485Z,1007.05
2017-06-24T03:20:54.814Z,1007.04
2017-06-24T03:21:56.046Z,1006.99
2017-06-24T03:22:57.418Z,1006.94
2017-06-24T03:23:58.663Z,1006.94
2017-06-24T03:24:59.955Z,1006.93
2017-06-24T03:26:01.205Z,1006.93
2017-06-24T03:27:02.584Z,1006.88
2017-06-24T03:28:03.868Z,1006.98
2017-06-24T03:29:05.134Z,1006.96
2017-06-24T03:30:06.383Z,1006.96
2017-06-24T03:31:07.672Z,1006.95
2017-06-24T03:32:08.929Z,1006.97
2017-06-24T03:33:10.222Z,1006.95
2017-06-24T03:34:11.653Z,1006.98
2017-06-24T03:35:12.916Z,1006.98
2017-06-24T03:36:14.208Z,1006.99
2017-06-24T03:37:15.435Z,1007.02
2017-06-24T03:38:16.816Z,1006.98
2017-06-24T03:39:18.101Z,1006.97
2017-06-24T03:40:19.408Z,1007
2017-06-24T03:41:20.670Z,1006.96
2017-06-24T03:42:21.932Z,1006.97
2017-06-24T03:43:23.207Z,1006.97
2017-06-24T03:44:24.502Z,1006.93
2017-06-24T03:45:25.894Z,1006.91
2017-06-24T03:46:27.177Z,1006.89
2017-06-24T03:47:28.459Z,1006.88
2017-06-24T03:48:29.750Z,1006.86
2017-06-24T03:49:31.031Z,1006.89
2017-06-24T03:50:32.362Z,1006.89
2017-06-24T03:51:33.691Z,1006.89
2017-06-24T03:52:34.960Z,1006.88
2017-06-24T03:53:36.217Z,1006.86
2017-06-24T03:54:37.515Z,1006.84
2017-06-24T03:55:38.816Z,1006.89
2017-06-24T03:56:40.189Z,1006.86
2017-06-24T03:57:41.460Z,1006.85
2017-06-24T03:58:42.721Z,1006.84
2017-06-24T03:59:43.961Z,1006.87
2017-06-24T04:00:45.220Z,1006.85
2017-06-24T04:01:46.471Z,1006.93
2017-06-24T04:02:47.835Z,1006.9
2017-06-24T04:03:49.103Z,1006.89
2017-06-24T04:04:50.355Z,1006.89
2017-06-24T04:05:51.667Z,1006.85
2017-06-24T04:06:52.920Z,1006.84
2017-06-24T04:07:54.275Z,1006.85
2017-06-24T04:08:55.606Z,1006.88
2017-06-24T04:09:56.861Z,1006.87
2017-06-24T04:10:58.104Z,1006.9
2017-06-24T04:11:59.379Z,1006.89
2017-06-24T04:13:00.696Z,1006.85
2017-06-24T04:14:02.024Z,1006.86
2017-06-24T04:15:03.263Z,1006.75
2017-06-24T04:16:04.503Z,1006.81
2017-06-24T04:17:05.888Z,1006.83
2017-06-24T04:18:07.124Z,1006.77
2017-06-24T04:19:08.408Z,1006.86
2017-06-24T04:20:09.733Z,1006.89
2017-06-24T04:21:11.040Z,1006.82
2017-06-24T04:22:12.293Z,1006.94
2017-06-24T04:23:13.585Z,1006.89
2017-06-24T04:24:14.952Z,1006.84
2017-06-24T04:25:16.276Z,1006.83
2017-06-24T04:26:17.564Z,1006.85
2017-06-24T04:27:18.797Z,1006.85
2017-06-24T04:28:20.097Z,1006.87
2017-06-24T04:29:21.329Z,1006.84
2017-06-24T04:30:22.713Z,1006.91
2017-06-24T04:31:23.999Z,1006.88
2017-06-24T04:32:25.287Z,1006.82
2017-06-24T04:33:26.511Z,1006.82
2017-06-24T04:34:27.806Z,1006.83
2017-06-24T04:35:29.073Z,1006.86
2017-06-24T04:36:30.386Z,1006.77
2017-06-24T04:37:31.656Z,1006.83
2017-06-24T04:38:32.920Z,1006.81
2017-06-24T04:39:34.177Z,1006.86
2017-06-24T04:40:35.474Z,1006.86
2017-06-24T04:41:36.755Z,1006.78
2017-06-24T04:42:38.166Z,1006.81
2017-06-24T04:43:39.441Z,1006.84
2017-06-24T04:44:40.710Z,1006.84
2017-06-24T04:45:42.001Z,1006.82
2017-06-24T04:46:43.238Z,1006.85
2017-06-24T04:47:44.515Z,1006.79
2017-06-24T04:48:45.916Z,1006.76
2017-06-24T04:49:47.213Z,1006.79
2017-06-24T04:50:48.506Z,1006.84
2017-06-24T04:51:49.791Z,1006.89
2017-06-24T04:52:51.062Z,1006.86
2017-06-24T04:53:52.407Z,1006.81
2017-06-24T04:54:53.676Z,1006.93
2017-06-24T04:55:55.011Z,1006.87
2017-06-24T04:56:56.229Z,1006.87
2017-06-24T04:57:57.502Z,1006.84
2017-06-24T04:58:58.818Z,1006.88
2017-06-24T05:00:00.124Z,1006.86
2017-06-24T05:01:01.466Z,1006.81
2017-06-24T05:02:02.759Z,1006.85
2017-06-24T05:03:04.008Z,1006.82
2017-06-24T05:04:05.271Z,1006.84
2017-06-24T05:05:06.568Z,1006.84
2017-06-24T05:06:07.885Z,1006.83
2017-06-24T05:07:09.191Z,1006.84
2017-06-24T05:08:10.456Z,1006.79
2017-06-24T05:09:11.745Z,1006.82
2017-06-24T05:10:12.988Z,1006.83
2017-06-24T05:11:14.277Z,1006.87
2017-06-24T05:12:15.560Z,1006.89
2017-06-24T05:13:16.835Z,1006.83
2017-06-24T05:14:18.128Z,1006.86
2017-06-24T05:15:19.367Z,1006.92
2017-06-24T05:16:20.638Z,1006.89
2017-06-24T05:17:22.007Z,1006.92
2017-06-24T05:18:23.290Z,1006.83
2017-06-24T05:19:24.621Z,1006.85
2017-06-24T05:20:25.832Z,1006.76
2017-06-24T05:21:27.119Z,1006.81
2017-06-24T05:22:28.473Z,1006.83
2017-06-24T05:23:29.727Z,1006.76
2017-06-24T05:24:30.986Z,1006.7
2017-06-24T05:25:32.239Z,1006.73
2017-06-24T05:26:33.517Z,1006.67
2017-06-24T05:27:34.795Z,1006.72
2017-06-24T05:28:36.070Z,1006.71
2017-06-24T05:29:37.331Z,1006.71
2017-06-24T05:30:38.614Z,1006.63
2017-06-24T05:31:39.958Z,1006.62
2017-06-24T05:32:41.224Z,1006.7
2017-06-24T05:33:42.461Z,1006.57
2017-06-24T05:34:43.744Z,1006.61
2017-06-24T05:35:45.183Z,1006.55
2017-06-24T05:36:46.522Z,1006.63
2017-06-24T05:37:47.763Z,1006.49
2017-06-24T05:38:49.004Z,1006.55
2017-06-24T05:39:50.269Z,1006.57
2017-06-24T05:40:51.502Z,1006.52
2017-06-24T05:41:52.813Z,1006.52
2017-06-24T05:42:54.123Z,1006.49
2017-06-24T05:43:55.392Z,1006.54
2017-06-24T05:44:56.668Z,1006.46
2017-06-24T05:45:57.970Z,1006.46
2017-06-24T05:46:59.235Z,1006.48
2017-06-24T05:48:00.567Z,1006.5
2017-06-24T05:49:01.862Z,1006.59
2017-06-24T05:50:03.160Z,1006.48
2017-06-24T05:51:04.434Z,1006.56
2017-06-24T05:52:05.746Z,1006.54
2017-06-24T05:53:07.021Z,1006.53
2017-06-24T05:54:08.294Z,1006.6
2017-06-24T05:55:09.559Z,1006.53
2017-06-24T05:56:10.810Z,1006.59
2017-06-24T05:57:12.050Z,1006.61
2017-06-24T05:58:13.342Z,1006.6
2017-06-24T05:59:14.611Z,1006.65
2017-06-24T06:00:15.940Z,1006.68
2017-06-24T06:01:17.187Z,1006.58
2017-06-24T06:02:18.470Z,1006.61
2017-06-24T06:03:19.743Z,1006.7
2017-06-24T06:04:21.022Z,1006.6
2017-06-24T06:05:22.293Z,1006.62
2017-06-24T06:06:23.534Z,1006.65
2017-06-24T06:07:24.777Z,1006.62
2017-06-24T06:08:26.057Z,1006.6
2017-06-24T06:09:27.304Z,1006.58
2017-06-24T06:10:28.566Z,1006.6
2017-06-24T06:11:29.978Z,1006.56
2017-06-24T06:12:31.233Z,1006.64
2017-06-24T06:13:32.485Z,1006.62
2017-06-24T06:14:33.772Z,1006.58
2017-06-24T06:15:35.045Z,1006.59
2017-06-24T06:16:36.344Z,1006.6
2017-06-24T06:17:37.603Z,1006.61
2017-06-24T06:18:38.898Z,1006.64
2017-06-24T06:19:40.215Z,1006.66
2017-06-24T06:20:41.491Z,1006.74
2017-06-24T06:21:42.785Z,1006.69
2017-06-24T06:22:44.101Z,1006.64
2017-06-24T06:23:45.400Z,1006.67
2017-06-24T06:24:46.654Z,1006.71
2017-06-24T06:25:47.946Z,1006.73
2017-06-24T06:26:49.199Z,1006.72
2017-06-24T06:27:50.517Z,1006.73
2017-06-24T06:28:51.801Z,1006.76
2017-06-24T06:29:53.046Z,1006.75
2017-06-24T06:30:54.336Z,1006.73
2017-06-24T06:31:55.593Z,1006.73
2017-06-24T06:32:56.885Z,1006.7
2017-06-24T06:33:58.145Z,1006.76
2017-06-24T06:34:59.373Z,1006.71
2017-06-24T06:36:00.670Z,1006.72
2017-06-24T06:37:02.030Z,1006.7
2017-06-24T06:38:03.326Z,1006.71
2017-06-24T06:39:04.562Z,1006.68
2017-06-24T06:40:05.910Z,1006.74
2017-06-24T06:41:07.195Z,1006.67
2017-06-24T06:42:08.484Z,1006.74
2017-06-24T06:43:09.744Z,1006.74
2017-06-24T06:44:10.993Z,1006.72
2017-06-24T06:45:12.399Z,1006.73
2017-06-24T06:46:13.751Z,1006.75
2017-06-24T06:47:15.015Z,1006.78
2017-06-24T06:48:16.258Z,1006.71
2017-06-24T06:49:17.521Z,1006.76
2017-06-24T06:50:18.781Z,1006.71
2017-06-24T06:51:20.087Z,1006.86
2017-06-24T06:52:21.334Z,1006.92
2017-06-24T06:53:22.719Z,1006.93
2017-06-24T06:54:24.003Z,1006.91
2017-06-24T06:55:25.280Z,1006.84
2017-06-24T06:56:26.614Z,1006.68
2017-06-24T06:57:27.909Z,1006.98
2017-06-24T06:58:29.179Z,1007.39
2017-06-24T06:59:30.447Z,1006.88
2017-06-24T07:00:31.714Z,1006.8
2017-06-24T07:01:33.048Z,1006.84
2017-06-24T07:02:34.303Z,1006.84
2017-06-24T07:03:35.614Z,1006.81
2017-06-24T07:04:36.893Z,1006.75
2017-06-24T07:05:38.226Z,1006.73
2017-06-24T07:06:39.533Z,1006.74
2017-06-24T07:07:40.830Z,1006.68
2017-06-24T07:08:42.219Z,1006.76
2017-06-24T07:09:43.578Z,1006.72
2017-06-24T07:10:44.976Z,1006.69
2017-06-24T07:11:46.263Z,1006.66
2017-06-24T07:12:47.525Z,1006.69
2017-06-24T07:13:48.819Z,1006.67
2017-06-24T07:14:50.106Z,1006.64
2017-06-24T07:15:51.370Z,1006.79
2017-06-24T07:16:52.645Z,1006.7
2017-06-24T07:17:53.900Z,1006.77
2017-06-24T07:18:55.184Z,1006.75
2017-06-24T07:19:56.454Z,1006.79
2017-06-24T07:20:57.735Z,1006.84
2017-06-24T07:21:59.053Z,1006.83
2017-06-24T07:23:00.296Z,1006.85
2017-06-24T07:24:01.620Z,1006.83
2017-06-24T07:25:02.856Z,1006.86
2017-06-24T07:26:04.160Z,1006.92
2017-06-24T07:27:05.542Z,1006.9
2017-06-24T07:28:06.806Z,1006.97
2017-06-24T07:29:08.111Z,1007.03
2017-06-24T07:30:09.357Z,1006.92
2017-06-24T07:31:10.687Z,1006.9
2017-06-24T07:32:11.938Z,1006.96
2017-06-24T07:33:13.231Z,1007.01
2017-06-24T07:34:14.520Z,1006.91
2017-06-24T07:35:15.801Z,1007.07
2017-06-24T07:36:17.044Z,1007.02
2017-06-24T07:37:18.481Z,1006.9
2017-06-24T07:38:19.790Z,1006.94
2017-06-24T07:39:21.097Z,1007.01
2017-06-24T07:40:22.370Z,1007.97
2017-06-24T07:41:23.629Z,1007.76
2017-06-24T07:42:24.916Z,1007.57
2017-06-24T07:43:26.305Z,1007.2
2017-06-24T07:44:27.566Z,1007.11
2017-06-24T07:45:28.879Z,1007.2
2017-06-24T07:46:30.106Z,1007.01
2017-06-24T07:47:31.421Z,1007.11
2017-06-24T07:48:32.828Z,1006.99
2017-06-24T07:49:34.152Z,1006.94
2017-06-24T07:50:35.447Z,1007.09
2017-06-24T07:51:36.747Z,1006.92
2017-06-24T07:52:38.033Z,1006.95
2017-06-24T07:53:39.320Z,1006.79
2017-06-24T07:54:40.746Z,1006.84
2017-06-24T07:55:42.009Z,1006.81
2017-06-24T07:56:43.266Z,1006.94
2017-06-24T07:57:44.542Z,1006.86
2017-06-24T07:58:45.819Z,1006.93
2017-06-24T07:59:47.094Z,1006.85
2017-06-24T08:00:48.503Z,1006.88
2017-06-24T08:01:49.778Z,1006.93
2017-06-24T08:02:51.071Z,1006.88
2017-06-24T08:03:52.309Z,1006.91
2017-06-24T08:04:53.577Z,1006.84
2017-06-24T08:05:54.942Z,1006.84
2017-06-24T08:06:56.225Z,1006.82
2017-06-24T08:07:57.516Z,1006.82
2017-06-24T08:08:58.764Z,1006.78
2017-06-24T08:10:00.024Z,1006.81
2017-06-24T08:11:01.281Z,1006.86
2017-06-24T08:12:02.573Z,1006.82
2017-06-24T08:13:03.847Z,1006.76
2017-06-24T08:14:05.110Z,1006.78
2017-06-24T08:15:06.385Z,1006.79
2017-06-24T08:16:07.634Z,1006.79
2017-06-24T08:17:08.943Z,1006.7
2017-06-24T08:18:10.274Z,1006.73
2017-06-24T08:19:11.527Z,1006.74
2017-06-24T08:20:12.806Z,1006.73
2017-06-24T08:21:14.189Z,1006.65
2017-06-24T08:22:15.466Z,1006.68
2017-06-24T08:23:16.894Z,1006.68
2017-06-24T08:24:18.127Z,1006.66
2017-06-24T08:25:19.464Z,1006.64
2017-06-24T08:26:20.730Z,1006.66
2017-06-24T08:27:22.420Z,1006.66
2017-06-24T08:28:23.665Z,1006.58
2017-06-24T08:29:24.820Z,1006.59
2017-06-24T08:30:26.197Z,1006.59
2017-06-24T08:31:27.453Z,1006.56
2017-06-24T08:32:28.753Z,1006.57
2017-06-24T08:33:30.015Z,1006.57
2017-06-24T08:34:31.254Z,1006.53
2017-06-24T08:35:32.515Z,1006.52
2017-06-24T08:36:33.809Z,1006.57
2017-06-24T08:37:35.129Z,1006.67
2017-06-24T08:38:36.603Z,1006.65
2017-06-24T08:39:37.875Z,1006.64
2017-06-24T08:40:39.144Z,1006.61
2017-06-24T08:41:40.402Z,1006.67
2017-06-24T08:42:41.708Z,1006.68
2017-06-24T08:43:43.094Z,1006.68
2017-06-24T08:44:44.468Z,1006.65
2017-06-24T08:45:45.723Z,1006.65
2017-06-24T08:46:47.207Z,1006.58
2017-06-24T08:47:48.514Z,1006.58
2017-06-24T08:48:49.807Z,1006.54
2017-06-24T08:49:51.130Z,1006.62
2017-06-24T08:50:52.533Z,1006.54
2017-06-24T08:51:53.804Z,1006.6
2017-06-24T08:52:55.079Z,1006.71
2017-06-24T08:53:56.391Z,1006.68
2017-06-24T08:54:57.671Z,1006.99
2017-06-24T08:55:58.962Z,1006.97
2017-06-24T08:57:00.321Z,1006.79
2017-06-24T08:58:01.604Z,1006.79
2017-06-24T08:59:03.039Z,1006.78
2017-06-24T09:00:04.454Z,1006.65
2017-06-24T09:01:05.701Z,1006.63
2017-06-24T09:02:06.972Z,1006.62
2017-06-24T09:03:08.231Z,1006.49
2017-06-24T09:04:09.505Z,1006.59
2017-06-24T09:05:10.837Z,1006.57
2017-06-24T09:06:12.281Z,1006.51
2017-06-24T09:07:13.527Z,1006.52
2017-06-24T09:08:14.810Z,1006.52
2017-06-24T09:09:16.111Z,1006.5
2017-06-24T09:10:17.404Z,1006.44
2017-06-24T09:11:18.653Z,1006.4
2017-06-24T09:12:19.984Z,1006.4
2017-06-24T09:13:21.256Z,1006.46
2017-06-24T09:14:22.575Z,1006.48
2017-06-24T09:15:23.826Z,1006.4
2017-06-24T09:16:25.151Z,1006.49
2017-06-24T09:17:26.407Z,1006.51
2017-06-24T09:18:27.714Z,1006.47
2017-06-24T09:19:28.975Z,1006.43
2017-06-24T09:20:30.271Z,1006.52
2017-06-24T09:21:31.516Z,1006.44
2017-06-24T09:22:32.836Z,1006.49
2017-06-24T09:23:34.105Z,1006.48
2017-06-24T09:24:35.453Z,1006.43
2017-06-24T09:25:36.756Z,1006.54
2017-06-24T09:26:38.047Z,1006.44
2017-06-24T09:27:39.312Z,1006.6
2017-06-24T09:28:40.638Z,1006.51
2017-06-24T09:29:41.908Z,1006.52
2017-06-24T09:30:43.203Z,1006.54
2017-06-24T09:31:44.494Z,1006.56
2017-06-24T09:32:45.761Z,1006.61
2017-06-24T09:33:47.075Z,1006.61
2017-06-24T09:34:48.380Z,1006.6
2017-06-24T09:35:49.694Z,1006.62
2017-06-24T09:36:50.955Z,1006.67
2017-06-24T09:37:52.197Z,1006.63
2017-06-24T09:38:53.459Z,1006.63
2017-06-24T09:39:54.818Z,1006.57
2017-06-24T09:40:56.121Z,1006.6
2017-06-24T09:41:57.374Z,1006.64
2017-06-24T09:42:58.663Z,1006.74
2017-06-24T09:43:59.924Z,1006.65
2017-06-24T09:45:01.219Z,1006.71
2017-06-24T09:46:02.748Z,1006.69
2017-06-24T09:47:04.015Z,1006.66
2017-06-24T09:48:05.280Z,1006.67
2017-06-24T09:49:06.547Z,1006.57
2017-06-24T09:50:07.866Z,1006.64
2017-06-24T09:51:09.192Z,1006.62
2017-06-24T09:52:10.479Z,1006.6
2017-06-24T09:53:11.759Z,1006.61
2017-06-24T09:54:13.045Z,1006.66
2017-06-24T09:55:14.359Z,1006.65
2017-06-24T09:56:15.623Z,1006.64
2017-06-24T09:57:16.891Z,1006.6
2017-06-24T09:58:18.199Z,1006.66
2017-06-24T09:59:19.504Z,1006.62
2017-06-24T10:00:20.759Z,1006.64
2017-06-24T10:01:22.044Z,1006.64
2017-06-24T10:02:23.297Z,1006.66
2017-06-24T10:03:24.609Z,1006.69
2017-06-24T10:04:25.893Z,1006.72
2017-06-24T10:05:27.133Z,1006.72
2017-06-24T10:06:28.385Z,1006.72
2017-06-24T10:07:29.668Z,1006.71
2017-06-24T10:08:30.919Z,1006.78
2017-06-24T10:09:32.220Z,1006.74
2017-06-24T10:10:33.621Z,1006.79
2017-06-24T10:11:34.886Z,1006.78
2017-06-24T10:12:36.145Z,1006.84
2017-06-24T10:13:37.426Z,1006.81
2017-06-24T10:14:38.713Z,1006.69
2017-06-24T10:15:39.996Z,1006.83
2017-06-24T10:16:41.345Z,1006.81
2017-06-24T10:17:42.571Z,1006.82
2017-06-24T10:18:43.829Z,1006.85
2017-06-24T10:19:45.144Z,1006.98
2017-06-24T10:20:46.413Z,1006.85
2017-06-24T10:21:47.743Z,1006.85
2017-06-24T10:22:49.017Z,1006.86
2017-06-24T10:23:50.302Z,1006.9
2017-06-24T10:24:51.617Z,1006.86
2017-06-24T10:25:52.924Z,1006.88
2017-06-24T10:26:54.334Z,1006.94
2017-06-24T10:27:55.589Z,1006.81
2017-06-24T10:28:56.903Z,1006.83
2017-06-24T10:29:58.138Z,1006.87
2017-06-24T10:30:59.434Z,1006.83
2017-06-24T10:32:00.778Z,1006.91
2017-06-24T10:33:02.045Z,1006.89
2017-06-24T10:34:03.400Z,1006.92
2017-06-24T10:35:04.667Z,1006.89
2017-06-24T10:36:05.943Z,1006.93
2017-06-24T10:37:07.216Z,1006.89
2017-06-24T10:38:08.480Z,1006.87
2017-06-24T10:39:09.758Z,1006.86
2017-06-24T10:40:10.991Z,1006.9
2017-06-24T10:41:12.330Z,1006.88
2017-06-24T10:42:13.612Z,1006.88
2017-06-24T10:43:14.915Z,1006.87
2017-06-24T10:44:16.277Z,1006.94
2017-06-24T10:45:17.580Z,1006.94
2017-06-24T10:46:18.854Z,1006.87
2017-06-24T10:47:20.126Z,1006.9
2017-06-24T10:48:21.521Z,1006.84
2017-06-24T10:49:22.948Z,1006.94
2017-06-24T10:50:24.217Z,1006.95
2017-06-24T10:51:25.470Z,1006.97
2017-06-24T10:52:26.737Z,1006.86
2017-06-24T10:53:27.996Z,1006.9
2017-06-24T10:54:29.279Z,1006.93
2017-06-24T10:55:30.556Z,1006.97
2017-06-24T10:56:31.921Z,1006.94
2017-06-24T10:57:33.189Z,1006.9
2017-06-24T10:58:34.461Z,1006.85
2017-06-24T10:59:35.730Z,1006.8
2017-06-24T11:00:37.079Z,1006.79
2017-06-24T11:01:38.370Z,1006.79
2017-06-24T11:02:39.660Z,1006.84
2017-06-24T11:03:40.930Z,1006.86
2017-06-24T11:04:42.209Z,1006.9
2017-06-24T11:05:43.464Z,1006.8
2017-06-24T11:06:44.883Z,1006.88
2017-06-24T11:07:46.151Z,1006.96
2017-06-24T11:08:47.403Z,1006.89
2017-06-24T11:09:48.662Z,1006.85
2017-06-24T11:10:49.977Z,1006.88
2017-06-24T11:11:51.269Z,1006.81
2017-06-24T11:12:52.591Z,1006.86
2017-06-24T11:13:53.907Z,1006.87
2017-06-24T11:14:55.172Z,1006.87
2017-06-24T11:15:56.528Z,1006.97
2017-06-24T11:16:57.878Z,1006.92
2017-06-24T11:17:59.205Z,1006.83
2017-06-24T11:19:00.501Z,1006.94
2017-06-24T11:20:01.766Z,1006.9
2017-06-24T11:21:03.027Z,1006.9
2017-06-24T11:22:04.294Z,1006.86
2017-06-24T11:23:05.581Z,1006.83
2017-06-24T11:24:06.907Z,1006.87
2017-06-24T11:25:08.193Z,1006.77
2017-06-24T11:26:09.449Z,1006.79
2017-06-24T11:27:10.755Z,1006.76
2017-06-24T11:28:11.993Z,1006.81
2017-06-24T11:29:13.248Z,1006.87
2017-06-24T11:30:14.652Z,1006.86
2017-06-24T11:31:15.932Z,1006.87
2017-06-24T11:32:17.229Z,1006.8
2017-06-24T11:33:18.506Z,1006.85
2017-06-24T11:34:19.799Z,1006.83
2017-06-24T11:35:21.136Z,1006.78
2017-06-24T11:36:22.495Z,1006.74
2017-06-24T11:37:23.750Z,1006.8
2017-06-24T11:38:25.017Z,1006.86
2017-06-24T11:39:26.316Z,1006.8
2017-06-24T11:40:27.693Z,1006.79
2017-06-24T11:41:28.956Z,1006.91
2017-06-24T11:42:30.291Z,1006.89
2017-06-24T11:43:31.578Z,1006.81
2017-06-24T11:44:32.835Z,1006.87
2017-06-24T11:45:34.056Z,1006.86
2017-06-24T11:46:35.335Z,1006.85
2017-06-24T11:47:36.600Z,1006.84
2017-06-24T11:48:37.891Z,1006.85
2017-06-24T11:49:39.145Z,1006.8
2017-06-24T11:50:40.457Z,1006.88
2017-06-24T11:51:41.679Z,1006.86
2017-06-24T11:52:43.083Z,1007.04
2017-06-24T11:53:44.430Z,1006.94
2017-06-24T11:54:45.691Z,1006.95
2017-06-24T11:55:47.002Z,1006.94
2017-06-24T11:56:48.300Z,1006.91
2017-06-24T11:57:49.548Z,1006.93
2017-06-24T11:58:50.878Z,1006.87
2017-06-24T11:59:52.145Z,1006.77
2017-06-24T12:00:53.478Z,1006.82
2017-06-24T12:01:54.725Z,1006.85
2017-06-24T12:02:55.988Z,1006.82
2017-06-24T12:03:57.320Z,1006.86
2017-06-24T12:04:58.658Z,1006.86
2017-06-24T12:05:59.929Z,1006.89
2017-06-24T12:07:01.280Z,1006.82
2017-06-24T12:08:02.597Z,1006.89
2017-06-24T12:09:03.950Z,1006.84
2017-06-24T12:10:05.180Z,1006.83
2017-06-24T12:11:06.442Z,1006.85
2017-06-24T12:12:07.721Z,1006.87
2017-06-24T12:13:09.000Z,1006.85
2017-06-24T12:14:10.375Z,1006.91
2017-06-24T12:15:11.614Z,1006.9
2017-06-24T12:16:13.010Z,1006.92
2017-06-24T12:17:14.367Z,1007
2017-06-24T12:18:15.617Z,1006.99
2017-06-24T12:19:16.886Z,1006.97
2017-06-24T12:20:18.201Z,1006.89
2017-06-24T12:21:19.420Z,1006.93
2017-06-24T12:22:20.703Z,1006.89
2017-06-24T12:23:21.942Z,1006.88
2017-06-24T12:24:23.332Z,1007.01